Time;durP1;ratioP1;P1;durP2;ratioP2;P2;SDS_P1;SDS_P2;PMS_P1;PMS_P2;Temp;Humidity;BMP_temperature;BMP_pressure;BME280_temperature;BME280_humidity;BME280_pressure;Samples;Min_cycle;Max_cycle;Signal;HPM_P1;HPM_P2
2023/08/17 00:00:19;;;;;;;8.80;5.90;;;;;;;22.48;61.79;101100.59;108427;1257;71574;-69
2023/08/17 00:02:47;;;;;;;10.50;6.10;;;;;;;22.49;61.78;101100.01;107694;1256;72505;-69
2023/08/17 00:05:15;;;;;;;8.40;5.80;;;;;;;22.50;61.80;101098.77;107784;1257;60511;-69
2023/08/17 00:07:42;;;;;;;6.30;5.50;;;;;;;22.50;61.88;101101.12;107703;1255;60367;-69
2023/08/17 00:10:10;;;;;;;7.50;5.70;;;;;;;22.52;61.92;101101.44;107767;1256;73861;-69
2023/08/17 00:12:38;;;;;;;9.70;6.10;;;;;;;22.54;61.88;101104.89;107900;1255;71284;-68
2023/08/17 00:15:06;;;;;;;8.50;6.30;;;;;;;22.56;61.60;101102.06;107791;1257;72784;-70
2023/08/17 00:17:34;;;;;;;8.80;5.60;;;;;;;22.58;61.53;101103.50;107740;1256;63953;-70
2023/08/17 00:20:04;;;;;;;7.30;5.80;;;;;;;22.58;61.59;101104.05;107902;1256;60393;-69
2023/08/17 00:22:32;;;;;;;7.40;5.50;;;;;;;22.59;61.62;101105.33;107773;1258;74267;-70
2023/08/17 00:25:00;;;;;;;9.60;6.00;;;;;;;22.56;61.44;101106.23;107653;1257;72882;-69
2023/08/17 00:27:28;;;;;;;7.90;6.00;;;;;;;22.55;61.50;101106.46;107878;1257;71860;-69
2023/08/17 00:29:56;;;;;;;6.90;5.60;;;;;;;22.53;61.60;101110.37;107543;1256;62259;-68
2023/08/17 00:32:25;;;;;;;7.30;6.50;;;;;;;22.51;61.68;101110.77;107626;1255;60422;-68
2023/08/17 00:34:53;;;;;;;8.40;6.00;;;;;;;22.48;61.91;101113.05;107737;1256;74123;-68
2023/08/17 00:37:21;;;;;;;6.50;5.60;;;;;;;22.46;61.93;101114.67;107668;1257;72883;-69
2023/08/17 00:39:49;;;;;;;8.40;5.80;;;;;;;22.42;62.20;101112.54;107701;1257;73740;-68
2023/08/17 00:42:16;;;;;;;7.70;5.70;;;;;;;22.24;62.72;101117.66;107864;1256;61706;-68
2023/08/17 00:44:44;;;;;;;8.40;5.50;;;;;;;22.10;63.27;101117.00;107646;1257;60406;-68
2023/08/17 00:47:12;;;;;;;7.50;5.80;;;;;;;22.02;63.64;101116.67;107600;1255;72682;-69
2023/08/17 00:49:40;;;;;;;7.00;5.90;;;;;;;21.97;64.02;101117.45;107628;1262;71791;-69
2023/08/17 00:52:08;;;;;;;7.30;6.00;;;;;;;21.93;64.21;101120.71;107567;1256;72758;-69
2023/08/17 00:54:36;;;;;;;9.80;6.10;;;;;;;21.90;64.46;101120.39;107889;1257;62250;-68
2023/08/17 00:57:06;;;;;;;6.40;5.70;;;;;;;21.87;64.82;101121.52;107684;1256;60467;-68
2023/08/17 00:59:34;;;;;;;7.60;5.60;;;;;;;21.89;64.87;101122.66;107735;1257;72986;-69
2023/08/17 01:02:03;;;;;;;7.40;6.10;;;;;;;21.85;65.09;101117.36;107622;1263;71444;-67
2023/08/17 01:04:31;;;;;;;7.30;6.00;;;;;;;21.82;65.05;101118.25;107607;1257;70764;-68
2023/08/17 01:07:01;;;;;;;6.60;5.60;;;;;;;21.76;65.32;101117.83;108211;1258;60406;-69
2023/08/17 01:09:29;;;;;;;7.40;6.00;;;;;;;21.70;65.53;101116.41;107722;1257;59058;-69
2023/08/17 01:12:15;;;;;;;6.30;5.60;;;;;;;21.68;65.76;101119.63;107729;1262;74588;-68
2023/08/17 01:14:52;;;;;;;8.70;6.40;;;;;;;21.67;65.87;101119.90;107522;1257;73472;-69
2023/08/17 01:17:30;;;;;;;8.00;6.10;;;;;;;21.80;65.66;101117.98;107534;1257;72775;-69
2023/08/17 01:19:58;;;;;;;6.90;6.00;;;;;;;21.83;65.43;101122.32;107810;1257;62191;-69
2023/08/17 01:22:25;;;;;;;6.90;5.70;;;;;;;21.82;65.60;101125.48;107907;1257;60332;-69
2023/08/17 01:24:59;;;;;;;7.30;6.60;;;;;;;21.78;65.65;101124.66;107686;1257;73160;-69
2023/08/17 01:27:38;;;;;;;7.40;6.30;;;;;;;21.79;65.81;101123.65;107852;1257;73017;-70
2023/08/17 01:30:07;;;;;;;7.20;6.50;;;;;;;21.82;66.03;101127.02;107716;1257;72169;-69
2023/08/17 01:32:54;;;;;;;7.20;6.10;;;;;;;21.81;65.96;101129.98;107809;1257;61713;-68
2023/08/17 01:35:38;;;;;;;7.70;6.70;;;;;;;21.80;65.95;101131.99;107777;1257;60321;-68
2023/08/17 01:38:09;;;;;;;7.00;6.00;;;;;;;21.81;66.03;101131.64;107678;1257;73902;-69
2023/08/17 01:40:37;;;;;;;7.80;6.00;;;;;;;21.82;65.99;101133.57;107623;1257;73089;-69
2023/08/17 01:43:04;;;;;;;7.70;6.20;;;;;;;21.83;66.31;101133.54;107584;1264;72106;-69
2023/08/17 01:45:32;;;;;;;7.30;6.40;;;;;;;21.87;66.39;101130.98;107686;1258;60511;-68
2023/08/17 01:48:01;;;;;;;7.10;6.20;;;;;;;21.90;66.64;101130.28;107630;1257;60421;-68
2023/08/17 01:50:30;;;;;;;9.80;6.90;;;;;;;21.93;67.08;101132.27;107746;1257;73158;-69
2023/08/17 01:52:58;;;;;;;9.70;7.80;;;;;;;21.97;67.12;101133.77;107812;1257;71575;-70
2023/08/17 01:55:26;;;;;;;9.30;7.50;;;;;;;21.99;67.42;101132.78;107527;1256;72775;-69
2023/08/17 01:57:54;;;;;;;9.00;7.80;;;;;;;21.99;67.62;101133.27;107562;1255;62092;-69
2023/08/17 02:00:22;;;;;;;10.10;7.30;;;;;;;21.95;67.76;101133.77;107511;1257;60440;-68
2023/08/17 02:02:50;;;;;;;9.60;7.30;;;;;;;21.90;68.02;101136.81;107608;1255;72203;-71
2023/08/17 02:05:17;;;;;;;8.50;7.50;;;;;;;21.89;67.90;101136.59;107828;1257;71421;-68
2023/08/17 02:07:45;;;;;;;10.00;7.50;;;;;;;21.91;68.04;101138.91;107802;1256;72706;-67
2023/08/17 02:10:14;;;;;;;7.70;6.50;;;;;;;21.92;67.92;101137.02;108125;1257;60786;-69
2023/08/17 02:12:41;;;;;;;7.60;6.80;;;;;;;21.89;67.77;101138.80;107941;1257;60316;-69
2023/08/17 02:15:09;;;;;;;7.50;6.40;;;;;;;21.87;67.66;101139.45;107669;1256;73830;-68
2023/08/17 02:17:37;;;;;;;8.20;6.70;;;;;;;21.85;67.56;101141.37;107785;1257;72528;-68
2023/08/17 02:20:06;;;;;;;7.90;6.70;;;;;;;21.86;67.51;101140.09;107859;1256;71718;-70
2023/08/17 02:22:34;;;;;;;9.40;7.00;;;;;;;21.89;67.45;101139.63;107742;1261;60468;-69
2023/08/17 02:25:02;;;;;;;8.80;6.90;;;;;;;21.90;67.17;101139.46;107500;1258;60453;-70
2023/08/17 02:27:31;;;;;;;8.20;6.60;;;;;;;21.91;67.05;101141.51;107744;1257;72932;-69
2023/08/17 02:29:59;;;;;;;7.70;6.90;;;;;;;21.90;66.97;101143.71;107966;1256;74027;-69
2023/08/17 02:32:27;;;;;;;10.40;7.20;;;;;;;21.87;66.82;101142.02;107740;1257;72702;-69
2023/08/17 02:34:55;;;;;;;8.10;7.20;;;;;;;21.84;66.95;101146.02;107716;1257;62940;-69
2023/08/17 02:37:23;;;;;;;10.30;7.20;;;;;;;21.82;66.88;101143.27;107935;1257;60402;-68
2023/08/17 02:39:51;;;;;;;8.50;7.00;;;;;;;21.77;66.93;101144.60;107921;1257;72707;-69
2023/08/17 02:42:19;;;;;;;8.20;7.30;;;;;;;21.75;66.86;101146.39;107798;1257;71732;-68
2023/08/17 02:44:47;;;;;;;10.50;7.80;;;;;;;21.74;66.86;101143.05;107693;1257;71673;-69
2023/08/17 02:47:14;;;;;;;8.20;7.40;;;;;;;21.72;66.88;101145.40;107740;1256;61760;-70
2023/08/17 02:49:42;;;;;;;8.10;7.10;;;;;;;21.70;66.89;101149.16;107682;1260;61117;-69
2023/08/17 02:52:10;;;;;;;8.20;7.10;;;;;;;21.70;67.04;101148.69;107688;1257;74632;-68
2023/08/17 02:54:38;;;;;;;8.60;7.60;;;;;;;21.69;67.05;101147.13;107977;1257;73676;-69
2023/08/17 02:57:05;;;;;;;8.40;6.90;;;;;;;21.67;66.94;101146.79;107731;1260;72512;-69
2023/08/17 02:59:33;;;;;;;9.30;7.00;;;;;;;21.67;67.07;101150.17;107615;1257;61091;-70
2023/08/17 03:02:01;;;;;;;8.60;7.20;;;;;;;21.66;66.87;101146.58;107689;1258;61138;-69
2023/08/17 03:04:28;;;;;;;8.60;6.80;;;;;;;21.63;66.73;101151.61;108013;1256;73390;-70
2023/08/17 03:06:56;;;;;;;7.90;7.10;;;;;;;21.59;66.65;101153.09;107647;1258;71688;-69
2023/08/17 03:09:24;;;;;;;9.20;6.90;;;;;;;21.56;66.53;101152.71;107597;1257;72750;-69
2023/08/17 03:11:52;;;;;;;8.10;7.10;;;;;;;21.53;66.52;101150.86;107679;1257;61291;-71
2023/08/17 03:14:20;;;;;;;8.40;7.30;;;;;;;21.48;66.36;101151.04;107951;1255;60135;-69
2023/08/17 03:16:47;;;;;;;8.20;6.90;;;;;;;21.46;66.43;101150.69;107804;1260;74318;-69
2023/08/17 03:19:15;;;;;;;8.70;6.80;;;;;;;21.45;66.53;101149.72;107664;1257;72874;-68
2023/08/17 03:21:43;;;;;;;7.70;6.80;;;;;;;21.46;66.54;101152.38;107854;1256;72799;-68
2023/08/17 03:24:11;;;;;;;8.30;7.40;;;;;;;21.47;66.54;101152.60;107761;1258;62021;-69
2023/08/17 03:26:39;;;;;;;7.60;6.90;;;;;;;21.49;66.49;101155.91;107717;1262;61928;-69
2023/08/17 03:29:09;;;;;;;7.80;7.00;;;;;;;21.53;66.55;101154.29;107665;1262;75021;-68
2023/08/17 03:31:37;;;;;;;7.40;6.70;;;;;;;21.56;66.71;101155.60;107688;1257;72529;-68
2023/08/17 03:34:07;;;;;;;9.00;7.10;;;;;;;21.61;66.58;101155.58;107777;1257;72671;-69
2023/08/17 03:36:34;;;;;;;9.30;6.90;;;;;;;21.61;66.54;101155.83;107712;1257;62216;-69
2023/08/17 03:39:03;;;;;;;7.30;6.50;;;;;;;21.65;66.50;101157.31;107819;1256;59391;-69
2023/08/17 03:41:31;;;;;;;10.70;7.30;;;;;;;21.66;66.58;101156.45;107804;1257;75306;-69
2023/08/17 03:43:58;;;;;;;9.00;6.90;;;;;;;21.70;66.39;101156.77;107833;1258;71578;-68
2023/08/17 03:46:26;;;;;;;7.70;6.80;;;;;;;21.70;66.33;101158.56;107853;1260;72847;-68
2023/08/17 03:48:54;;;;;;;7.30;6.50;;;;;;;21.69;66.28;101156.85;107904;1258;61250;-70
2023/08/17 03:51:21;;;;;;;8.50;6.60;;;;;;;21.71;66.13;101151.73;107805;1257;61225;-69
2023/08/17 03:53:49;;;;;;;8.00;6.60;;;;;;;21.76;66.10;101152.98;107609;1257;75363;-68
2023/08/17 03:56:17;;;;;;;7.40;6.40;;;;;;;21.83;66.02;101154.43;107886;1258;72896;-68
2023/08/17 03:58:45;;;;;;;8.60;6.80;;;;;;;21.91;65.79;101153.06;107692;1257;72777;-68
2023/08/17 04:01:13;;;;;;;8.80;6.60;;;;;;;21.97;65.73;101157.64;107656;1258;61238;-70
2023/08/17 04:03:41;;;;;;;9.50;6.80;;;;;;;22.04;65.41;101153.67;107813;1257;61035;-69
2023/08/17 04:06:10;;;;;;;10.40;6.90;;;;;;;22.12;65.21;101156.98;107826;1257;73505;-69
2023/08/17 04:08:38;;;;;;;9.60;7.00;;;;;;;22.18;65.08;101152.56;107852;1258;71638;-69
2023/08/17 04:11:05;;;;;;;9.40;6.60;;;;;;;22.24;64.83;101150.95;107779;1257;71376;-69
2023/08/17 04:13:33;;;;;;;8.50;7.00;;;;;;;22.32;64.62;101151.90;107785;1261;61116;-69
2023/08/17 04:16:01;;;;;;;9.10;6.60;;;;;;;22.40;64.25;101148.83;107864;1256;61082;-68
2023/08/17 04:18:28;;;;;;;8.30;7.00;;;;;;;22.49;64.02;101146.11;107709;1257;74607;-69
2023/08/17 04:20:56;;;;;;;8.70;6.30;;;;;;;22.58;63.86;101153.11;107847;1256;71443;-69
2023/08/17 04:23:25;;;;;;;7.60;6.50;;;;;;;22.65;63.38;101150.86;107789;1257;71418;-68
2023/08/17 04:25:53;;;;;;;8.00;6.20;;;;;;;22.73;62.96;101148.85;107898;1257;61615;-69
2023/08/17 04:28:21;;;;;;;9.60;6.50;;;;;;;22.81;62.51;101148.25;107847;1258;61359;-69
2023/08/17 04:30:51;;;;;;;7.30;6.30;;;;;;;22.89;62.34;101151.88;107698;1257;73679;-69
2023/08/17 04:33:19;;;;;;;7.70;5.90;;;;;;;22.96;61.85;101151.47;107734;1258;71958;-71
2023/08/17 04:35:47;;;;;;;7.10;5.60;;;;;;;23.03;61.82;101148.02;107872;1257;71528;-70
2023/08/17 04:38:15;;;;;;;9.30;6.30;;;;;;;23.10;61.50;101151.35;107739;1258;61147;-70
2023/08/17 04:40:43;;;;;;;6.80;5.80;;;;;;;23.18;61.37;101152.46;107789;1257;59000;-71
2023/08/17 04:43:11;;;;;;;6.60;5.50;;;;;;;23.28;61.18;101149.11;107668;1263;75090;-70
2023/08/17 04:45:38;;;;;;;7.30;5.70;;;;;;;23.39;61.12;101153.55;107786;1258;72933;-68
2023/08/17 04:48:07;;;;;;;7.70;5.60;;;;;;;23.47;60.65;101152.29;107867;1257;71424;-68
2023/08/17 04:50:35;;;;;;;8.10;5.90;;;;;;;23.57;60.32;101155.34;107865;1257;61717;-69
2023/08/17 04:53:03;;;;;;;7.80;5.70;;;;;;;23.69;60.04;101151.57;107732;1257;61180;-71
2023/08/17 04:55:34;;;;;;;8.00;5.90;;;;;;;23.81;59.72;101154.61;107708;1256;74755;-69
2023/08/17 04:58:02;;;;;;;7.60;5.70;;;;;;;23.93;59.28;101152.50;107821;1257;74284;-69
2023/08/17 05:00:30;;;;;;;7.40;5.70;;;;;;;24.01;58.96;101154.20;107752;1261;72709;-69
2023/08/17 05:02:58;;;;;;;8.10;6.20;;;;;;;24.10;58.66;101155.56;107601;1259;63280;-69
2023/08/17 05:05:31;;;;;;;8.20;6.70;;;;;;;24.21;58.28;101152.11;107910;1258;61261;-70
2023/08/17 05:07:59;;;;;;;10.90;6.70;;;;;;;24.28;57.77;101153.70;107645;1261;74681;-70
2023/08/17 05:10:27;;;;;;;7.50;6.00;;;;;;;24.33;57.59;101155.14;107666;1258;73186;-69
2023/08/17 05:12:55;;;;;;;7.70;6.10;;;;;;;24.38;57.77;101155.55;107917;1257;73607;-70
2023/08/17 05:15:23;;;;;;;7.10;5.80;;;;;;;24.45;57.76;101149.91;107650;1258;61800;-69
2023/08/17 05:17:50;;;;;;;8.00;6.10;;;;;;;24.52;57.76;101159.44;107713;1257;61279;-69
2023/08/17 05:20:20;;;;;;;8.80;5.40;;;;;;;24.54;57.45;101156.76;107674;1257;73464;-69
2023/08/17 05:22:48;;;;;;;8.00;5.50;;;;;;;24.53;57.36;101159.06;107725;1257;72946;-70
2023/08/17 05:25:17;;;;;;;7.30;5.50;;;;;;;24.56;57.52;101160.27;107770;1257;72150;-69
2023/08/17 05:27:45;;;;;;;8.40;5.80;;;;;;;24.64;57.64;101159.52;107457;1260;62282;-69
2023/08/17 05:30:13;;;;;;;6.10;5.50;;;;;;;24.72;57.39;101157.46;107817;1258;61108;-70
2023/08/17 05:32:45;;;;;;;7.50;5.80;;;;;;;24.78;57.32;101154.23;108111;1257;74727;-70
2023/08/17 05:35:12;;;;;;;6.20;5.60;;;;;;;24.82;57.16;101153.98;107763;1257;72740;-70
2023/08/17 05:37:40;;;;;;;6.50;5.70;;;;;;;24.89;56.98;101156.86;107847;1257;71491;-70
2023/08/17 05:40:08;;;;;;;5.80;5.00;;;;;;;24.95;56.73;101156.61;108046;1257;61176;-70
2023/08/17 05:42:36;;;;;;;6.20;4.60;;;;;;;25.04;56.47;101155.50;107530;1256;61192;-70
2023/08/17 05:45:05;;;;;;;6.60;5.10;;;;;;;25.14;56.08;101154.43;107539;1257;74670;-70
2023/08/17 05:47:32;;;;;;;8.00;4.90;;;;;;;25.25;55.80;101151.27;108136;1260;72528;-70
2023/08/17 05:50:01;;;;;;;7.30;4.80;;;;;;;25.36;55.28;101151.38;107758;1257;72743;-69
2023/08/17 05:52:28;;;;;;;6.40;5.10;;;;;;;25.47;54.62;101152.04;107740;1256;61138;-69
2023/08/17 05:54:56;;;;;;;5.90;4.50;;;;;;;25.56;54.17;101154.42;107946;1257;61847;-69
2023/08/17 05:57:24;;;;;;;6.50;4.70;;;;;;;25.65;53.87;101152.36;107805;1257;74906;-69
2023/08/17 05:59:53;;;;;;;6.80;4.50;;;;;;;25.77;53.35;101149.02;107843;1257;71548;-70
2023/08/17 06:02:20;;;;;;;5.80;4.30;;;;;;;25.86;52.61;101148.06;107848;1257;73106;-70
2023/08/17 06:04:49;;;;;;;4.90;4.20;;;;;;;25.96;52.42;101147.75;107861;1257;61132;-72
2023/08/17 06:07:17;;;;;;;5.80;4.40;;;;;;;26.05;52.00;101149.56;107822;1256;60508;-71
2023/08/17 06:09:45;;;;;;;6.50;4.40;;;;;;;26.15;51.99;101149.23;107683;1257;74807;-68
2023/08/17 06:12:12;;;;;;;5.50;4.20;;;;;;;26.24;51.55;101152.30;107925;1256;72486;-69
2023/08/17 06:14:41;;;;;;;5.70;3.80;;;;;;;26.32;51.09;101147.73;107971;1257;73587;-69
2023/08/17 06:17:09;;;;;;;5.40;4.00;;;;;;;26.40;50.72;101150.30;107996;1256;61083;-70
2023/08/17 06:19:39;;;;;;;5.30;4.00;;;;;;;26.44;50.00;101151.84;107667;1257;61224;-69
2023/08/17 06:22:07;;;;;;;6.40;3.90;;;;;;;26.51;49.81;101146.77;107946;1257;74800;-71
2023/08/17 06:24:34;;;;;;;4.80;3.60;;;;;;;26.60;49.77;101145.39;107805;1257;71281;-70
2023/08/17 06:27:02;;;;;;;6.60;3.70;;;;;;;26.70;49.36;101143.68;108035;1257;71117;-70
2023/08/17 06:29:30;;;;;;;4.80;3.60;;;;;;;26.29;50.38;101152.66;107909;1257;61132;-71
2023/08/17 06:31:57;;;;;;;5.00;3.10;;;;;;;26.49;50.22;101145.69;107717;1256;61569;-70
2023/08/17 06:34:25;;;;;;;4.90;3.40;;;;;;;26.99;48.84;101143.77;107941;1257;73440;-68
2023/08/17 06:37:01;;;;;;;5.00;3.60;;;;;;;27.20;48.25;101145.95;107737;1260;71696;-70
2023/08/17 06:39:29;;;;;;;4.10;2.90;;;;;;;27.34;47.46;101146.99;107940;1257;73160;-71
2023/08/17 06:41:57;;;;;;;4.40;2.70;;;;;;;27.43;46.73;101144.77;107680;1256;61136;-71
2023/08/17 06:44:24;;;;;;;3.50;2.70;;;;;;;27.46;45.76;101142.63;107627;1256;61231;-70
2023/08/17 06:46:52;;;;;;;5.40;2.80;;;;;;;27.59;45.63;101145.60;107592;1256;74804;-71
2023/08/17 06:49:19;;;;;;;4.40;3.00;;;;;;;27.69;45.11;101143.55;107649;1257;74985;-70
2023/08/17 06:51:47;;;;;;;5.10;3.10;;;;;;;27.72;44.45;101145.56;108471;1257;63782;-70
2023/08/17 06:54:15;;;;;;;4.90;2.90;;;;;;;27.71;44.70;101143.59;107704;1257;61148;-71
2023/08/17 06:56:43;;;;;;;4.90;3.00;;;;;;;27.77;44.65;101142.55;108247;1257;61146;-69
2023/08/17 06:59:10;;;;;;;3.80;2.80;;;;;;;27.84;44.32;101144.91;108275;1257;74314;-71
2023/08/17 07:01:38;;;;;;;6.40;2.70;;;;;;;27.91;43.95;101144.66;108836;1257;71639;-71
2023/08/17 07:04:05;;;;;;;4.20;2.70;;;;;;;27.98;43.91;101148.34;108088;1256;62922;-70
2023/08/17 07:06:34;;;;;;;4.10;2.90;;;;;;;28.09;43.95;101147.52;107813;1256;61205;-70
2023/08/17 07:09:04;;;;;;;5.90;2.90;;;;;;;28.20;44.43;101145.86;108214;1256;59215;-70
2023/08/17 07:11:32;;;;;;;4.30;2.80;;;;;;;28.22;44.09;101141.20;107673;1257;74711;-69
2023/08/17 07:14:00;;;;;;;4.40;2.80;;;;;;;28.25;42.93;101139.21;107754;1257;72645;-69
2023/08/17 07:16:28;;;;;;;4.30;2.80;;;;;;;28.24;42.91;101138.34;107508;1257;62741;-69
2023/08/17 07:18:55;;;;;;;4.40;2.80;;;;;;;28.27;43.26;101136.90;107446;1257;61346;-70
2023/08/17 07:21:23;;;;;;;4.60;2.80;;;;;;;28.34;42.74;101135.45;107684;1257;61659;-69
2023/08/17 07:23:51;;;;;;;4.50;2.70;;;;;;;28.42;42.72;101133.50;107660;1256;64512;-70
2023/08/17 07:26:18;;;;;;;4.40;2.60;;;;;;;28.54;42.52;101130.29;108153;1257;63997;-71
2023/08/17 07:28:47;;;;;;;5.30;2.90;;;;;;;28.76;42.14;101123.52;108164;1256;63919;-70
2023/08/17 07:31:15;;;;;;;4.70;2.70;;;;;;;28.84;41.39;101118.23;107534;1257;61096;-73
2023/08/17 07:33:43;;;;;;;4.10;2.60;;;;;;;28.91;41.56;101119.90;107839;1255;60834;-70
2023/08/17 07:36:11;;;;;;;5.20;2.70;;;;;;;28.93;40.98;101120.41;107687;1256;64844;-70
2023/08/17 07:38:38;;;;;;;5.90;2.70;;;;;;;28.88;41.03;101120.73;107823;1257;63958;-70
2023/08/17 07:41:06;;;;;;;3.40;2.10;;;;;;;29.01;40.29;101122.44;107455;1260;63864;-70
2023/08/17 07:43:34;;;;;;;5.10;2.30;;;;;;;29.09;39.93;101121.16;107568;1258;60114;-70
2023/08/17 07:46:01;;;;;;;3.80;2.00;;;;;;;29.12;40.02;101118.14;107815;1256;61265;-71
2023/08/17 07:48:33;;;;;;;3.40;2.10;;;;;;;29.14;38.80;101123.04;107703;1257;64680;-71
2023/08/17 07:51:01;;;;;;;4.20;1.90;;;;;;;29.10;38.71;101121.98;107697;1257;63953;-72
2023/08/17 07:53:29;;;;;;;3.80;1.80;;;;;;;29.15;38.95;101120.93;108080;1256;65608;-70
2023/08/17 07:55:57;;;;;;;4.00;2.20;;;;;;;29.19;38.95;101123.75;108806;1257;61318;-72
2023/08/17 07:58:25;;;;;;;4.70;2.10;;;;;;;29.16;39.50;101127.71;107685;1257;61123;-71
2023/08/17 08:00:52;;;;;;;4.40;1.90;;;;;;;29.23;39.13;101129.63;107682;1258;65683;-70
2023/08/17 08:03:20;;;;;;;8.10;2.00;;;;;;;29.35;38.73;101128.48;107601;1257;64033;-71
2023/08/17 08:05:48;;;;;;;2.30;1.60;;;;;;;29.51;38.55;101129.15;107484;1257;66070;-71
2023/08/17 08:08:17;;;;;;;3.80;2.10;;;;;;;29.70;38.53;101129.69;107384;1256;61904;-71
2023/08/17 08:10:45;;;;;;;3.70;1.60;;;;;;;29.86;37.19;101133.11;107669;1257;61141;-72
2023/08/17 08:13:13;;;;;;;7.10;1.80;;;;;;;29.89;37.07;101136.05;108178;1257;65722;-71
2023/08/17 08:15:41;;;;;;;4.30;2.00;;;;;;;29.82;36.53;101135.42;108819;1256;62893;-72
2023/08/17 08:18:09;;;;;;;4.20;2.00;;;;;;;29.77;37.04;101131.98;107349;1256;63842;-71
2023/08/17 08:20:37;;;;;;;3.30;1.70;;;;;;;29.79;37.58;101127.90;107603;1257;61278;-72
2023/08/17 08:23:05;;;;;;;3.20;1.60;;;;;;;29.84;36.83;101121.84;107727;1256;62150;-70
2023/08/17 08:25:33;;;;;;;2.10;1.60;;;;;;;29.88;37.12;101120.86;108072;1256;65788;-71
2023/08/17 08:28:00;;;;;;;2.80;1.80;;;;;;;29.94;36.61;101120.91;107748;1257;62659;-69
2023/08/17 08:30:28;;;;;;;4.70;2.00;;;;;;;29.96;36.18;101121.82;107769;1257;64205;-71
2023/08/17 08:32:57;;;;;;;2.80;1.60;;;;;;;30.01;36.13;101124.77;107606;1260;59353;-72
2023/08/17 08:35:25;;;;;;;4.90;1.50;;;;;;;30.06;35.41;101124.05;107532;1260;63675;-71
2023/08/17 08:37:55;;;;;;;3.10;1.70;;;;;;;30.10;35.55;101120.48;107701;1255;64682;-73
2023/08/17 08:40:29;;;;;;;3.00;1.70;;;;;;;30.17;35.74;101115.38;107702;1257;62690;-72
2023/08/17 08:42:57;;;;;;;5.20;1.70;;;;;;;30.28;36.10;101112.83;107641;1257;63793;-71
2023/08/17 08:45:25;;;;;;;3.50;1.40;;;;;;;30.40;35.90;101113.73;107669;1257;61155;-73
2023/08/17 08:47:53;;;;;;;2.50;1.50;;;;;;;30.51;35.43;101115.10;107761;1257;61245;-73
2023/08/17 08:50:24;;;;;;;3.80;1.80;;;;;;;30.64;35.71;101115.53;107484;1257;65104;-71
2023/08/17 08:52:58;;;;;;;6.80;1.80;;;;;;;30.72;35.11;101118.83;107756;1257;64044;-72
2023/08/17 08:55:30;;;;;;;2.90;1.60;;;;;;;30.71;34.87;101120.80;107728;1255;62510;-75
2023/08/17 08:57:58;;;;;;;2.50;1.80;;;;;;;30.71;34.77;101122.76;107610;1257;61176;-71
2023/08/17 09:00:26;;;;;;;2.70;1.70;;;;;;;30.60;34.18;101125.04;107332;1257;61277;-70
2023/08/17 09:02:54;;;;;;;3.40;1.80;;;;;;;30.38;34.37;101119.61;107554;1256;66155;-72
2023/08/17 09:05:22;;;;;;;3.10;1.80;;;;;;;30.28;34.74;101115.89;107586;1257;62531;-72
2023/08/17 09:07:52;;;;;;;4.20;1.50;;;;;;;30.33;35.22;101115.40;107706;1256;73597;-72
2023/08/17 09:10:20;;;;;;;2.90;1.70;;;;;;;30.41;35.01;101120.52;107624;1256;61090;-71
2023/08/17 09:12:48;;;;;;;3.20;1.80;;;;;;;30.52;34.86;101115.73;107660;1257;61247;-72
2023/08/17 09:15:17;;;;;;;3.50;1.80;;;;;;;30.63;34.70;101113.95;107554;1256;66713;-71
2023/08/17 09:17:44;;;;;;;2.50;1.70;;;;;;;30.77;35.00;101111.02;107607;1257;64046;-71
2023/08/17 09:20:37;;;;;;;4.90;1.60;;;;;;;30.94;35.38;101106.02;107728;1256;65775;-70
2023/08/17 09:23:10;;;;;;;3.10;1.80;;;;;;;31.20;35.05;101108.64;107743;1254;61204;-71
2023/08/17 09:25:40;;;;;;;2.60;1.60;;;;;;;31.36;34.35;101104.36;107632;1256;61228;-71
2023/08/17 09:28:09;;;;;;;3.70;1.70;;;;;;;31.42;34.31;101105.73;107565;1258;65009;-71
2023/08/17 09:30:55;;;;;;;5.30;1.80;;;;;;;31.46;34.25;101108.43;107665;1256;63815;-71
2023/08/17 09:33:28;;;;;;;2.60;1.60;;;;;;;31.45;33.60;101103.92;108216;1256;63818;-70
2023/08/17 09:35:56;;;;;;;8.20;2.00;;;;;;;31.31;33.14;101105.49;107801;1256;61250;-70
2023/08/17 09:38:27;;;;;;;2.80;1.70;;;;;;;31.15;33.18;101104.98;108559;1256;251771;-71
2023/08/17 09:40:56;;;;;;;3.00;1.80;;;;;;;31.07;33.04;101106.37;108855;1255;76883;-71
2023/08/17 09:43:25;;;;;;;4.00;1.70;;;;;;;31.06;33.41;101107.61;107575;1257;62540;-70
2023/08/17 09:45:53;;;;;;;3.30;1.70;;;;;;;31.06;33.97;101106.35;107765;1257;62740;-71
2023/08/17 09:48:21;;;;;;;4.80;1.80;;;;;;;31.05;33.36;101103.20;107310;1257;61183;-70
2023/08/17 09:50:48;;;;;;;3.50;1.80;;;;;;;31.00;33.32;101098.58;107591;1257;62031;-70
2023/08/17 09:53:17;;;;;;;3.30;1.60;;;;;;;31.02;34.11;101096.46;107568;1255;65783;-72
2023/08/17 09:55:45;;;;;;;3.80;1.80;;;;;;;31.12;34.65;101095.35;107881;1257;62529;-71
2023/08/17 09:58:15;;;;;;;3.10;1.70;;;;;;;31.19;33.89;101093.35;107324;1257;65568;-72
2023/08/17 10:00:51;;;;;;;3.40;1.60;;;;;;;31.25;34.34;101093.14;107478;1256;61210;-71
2023/08/17 10:03:19;;;;;;;3.80;1.70;;;;;;;31.42;33.55;101092.63;107478;1256;59781;-72
2023/08/17 10:05:55;;;;;;;3.40;1.50;;;;;;;31.51;33.62;101087.40;107379;1255;64527;-72
2023/08/17 10:08:23;;;;;;;4.60;1.60;;;;;;;31.54;33.84;101087.80;107312;1257;62641;-72
2023/08/17 10:10:51;;;;;;;4.70;1.70;;;;;;;31.54;34.13;101088.13;107417;1256;62870;-73
2023/08/17 10:13:55;;;;;;;3.50;1.50;;;;;;;31.59;33.58;101082.85;107443;1257;61187;-73
2023/08/17 10:16:26;;;;;;;3.90;1.60;;;;;;;31.61;33.28;101079.14;107697;1255;61102;-72
2023/08/17 10:19:10;;;;;;;3.00;1.70;;;;;;;31.49;32.70;101072.48;107764;1255;65873;-73
2023/08/17 10:21:43;;;;;;;4.20;1.60;;;;;;;31.19;33.13;101077.81;107839;1260;62644;-72
2023/08/17 10:24:11;;;;;;;4.80;2.00;;;;;;;31.00;34.37;101078.56;107801;1256;63947;-73
2023/08/17 10:26:39;;;;;;;3.20;1.50;;;;;;;31.04;34.64;101081.35;107657;1257;61066;-72
2023/08/17 10:29:09;;;;;;;2.70;1.60;;;;;;;31.18;33.77;101077.09;107601;1257;61319;-73
2023/08/17 10:31:45;;;;;;;3.10;1.60;;;;;;;31.31;34.19;101077.26;107570;1255;64452;-71
2023/08/17 10:34:13;;;;;;;3.20;1.70;;;;;;;31.40;34.05;101077.02;107884;1256;66061;-71
2023/08/17 10:36:41;;;;;;;3.30;1.60;;;;;;;31.35;32.91;101079.11;107776;1257;63978;-74
2023/08/17 10:41:47;;;;;;;4.00;1.60;;;;;;;31.22;32.92;101078.94;104584;1291;600292;-72
2023/08/17 10:44:18;;;;;;;3.30;1.70;;;;;;;31.20;32.52;101072.38;107219;1267;59493;-71
2023/08/17 10:46:46;;;;;;;3.00;1.50;;;;;;;31.25;33.13;101068.00;107256;1270;59610;-71
2023/08/17 10:49:26;;;;;;;2.60;1.70;;;;;;;31.39;33.75;101066.98;107182;1272;63360;-71
2023/08/17 10:52:04;;;;;;;3.50;2.30;;;;;;;31.53;33.35;101062.31;107093;1264;63995;-73
2023/08/17 10:54:43;;;;;;;3.40;2.20;;;;;;;31.59;32.61;101065.73;107046;1263;241572;-71
2023/08/17 10:57:30;;;;;;;4.20;2.00;;;;;;;31.60;32.55;101061.64;107282;1267;59289;-72
2023/08/17 11:00:17;;;;;;;3.10;2.10;;;;;;;31.57;32.24;101061.30;107199;1269;59525;-71
2023/08/17 11:03:00;;;;;;;5.00;2.00;;;;;;;31.51;32.35;101063.97;107228;1264;63341;-71
2023/08/17 11:05:39;;;;;;;5.00;1.90;;;;;;;31.52;32.26;101066.17;107107;1264;63771;-71
2023/08/17 11:08:14;;;;;;;3.90;2.10;;;;;;;31.59;32.35;101062.50;107014;1269;64230;-71
2023/08/17 11:10:43;;;;;;;5.90;2.40;;;;;;;31.68;32.96;101058.52;107169;1265;60283;-71
2023/08/17 11:13:14;;;;;;;6.80;2.70;;;;;;;31.80;33.06;101053.11;107052;1264;59691;-71
2023/08/17 11:15:43;;;;;;;4.10;2.20;;;;;;;31.87;33.01;101051.16;107154;1264;62935;-71
2023/08/17 11:18:11;;;;;;;3.10;1.80;;;;;;;31.91;32.37;101050.55;106999;1264;66230;-71
2023/08/17 11:20:40;;;;;;;3.90;2.00;;;;;;;31.95;32.08;101049.39;107001;1270;65985;-70
2023/08/17 11:23:11;;;;;;;4.30;1.80;;;;;;;31.94;32.13;101051.90;107188;1263;59646;-72
2023/08/17 11:25:39;;;;;;;;;;;;;;;31.87;32.40;101052.50;107110;1263;59538;-70
2023/08/17 11:28:11;;;;;;;4.70;2.00;;;;;;;31.84;32.59;101050.98;107138;1264;64315;-70